createdAt,value
2023-05-06T00:00:52.000Z,0
2023-05-06T00:03:25.000Z,0
2023-05-06T00:05:51.000Z,0
2023-05-06T00:05:57.000Z,0
2023-05-06T00:07:17.786Z,0
2023-05-06T00:08:30.000Z,0
2023-05-06T00:09:46.000Z,0
2023-05-06T00:11:02.000Z,0
2023-05-06T00:13:34.000Z,0
2023-05-06T00:14:53.731Z,0
2023-05-06T00:16:06.000Z,0
2023-05-06T00:17:22.000Z,0
2023-05-06T00:18:38.000Z,0
2023-05-06T00:19:58.768Z,0
2023-05-06T00:21:14.709Z,0
2023-05-06T00:22:31.158Z,0
2023-05-06T00:23:47.343Z,0
2023-05-06T00:25:03.298Z,0
2023-05-06T00:26:19.494Z,0
2023-05-06T00:27:35.934Z,0
2023-05-06T00:28:48.000Z,0
2023-05-06T00:29:57.000Z,0
2023-05-06T00:30:04.000Z,0
2023-05-06T00:31:19.000Z,0
2023-05-06T00:32:39.491Z,0
2023-05-06T00:33:55.940Z,0
2023-05-06T00:35:12.123Z,0
2023-05-06T00:37:44.537Z,0
2023-05-06T00:38:56.000Z,0
2023-05-06T00:40:12.000Z,0
2023-05-06T00:41:29.000Z,0
2023-05-06T00:42:45.000Z,0
2023-05-06T00:44:01.000Z,0
2023-05-06T00:45:21.451Z,0
2023-05-06T00:46:33.000Z,0
2023-05-06T00:47:53.117Z,0
2023-05-06T00:49:05.000Z,0
2023-05-06T00:50:21.000Z,0
2023-05-06T00:51:37.000Z,0
2023-05-06T00:52:53.000Z,0
2023-05-06T00:54:10.000Z,0
2023-05-06T00:55:30.283Z,0
2023-05-06T00:56:42.000Z,0
2023-05-06T00:57:58.000Z,0
2023-05-06T00:59:18.872Z,0
2023-05-06T01:00:31.000Z,0
2023-05-06T01:01:47.000Z,0
2023-05-06T01:03:07.462Z,0
2023-05-06T01:04:22.424Z,0
2023-05-06T01:05:34.000Z,0
2023-05-06T01:06:51.000Z,0
2023-05-06T01:08:11.012Z,0
2023-05-06T01:09:23.000Z,0
2023-05-06T01:10:39.000Z,0
2023-05-06T01:11:59.854Z,0
2023-05-06T01:13:12.000Z,0
2023-05-06T01:14:28.000Z,0
2023-05-06T01:15:44.000Z,0
2023-05-06T01:17:00.000Z,0
2023-05-06T01:18:20.828Z,0
2023-05-06T01:19:33.000Z,0
2023-05-06T01:20:48.000Z,0
2023-05-06T01:22:04.000Z,0
2023-05-06T01:23:20.000Z,0
2023-05-06T01:24:40.826Z,0
2023-05-06T01:25:53.000Z,0
2023-05-06T01:27:09.000Z,0
2023-05-06T01:28:25.000Z,0
2023-05-06T01:29:41.000Z,0
2023-05-06T01:31:01.802Z,0
2023-05-06T01:32:14.000Z,0
2023-05-06T01:33:30.000Z,0
2023-05-06T01:34:46.000Z,0
2023-05-06T01:36:02.000Z,0
2023-05-06T01:37:21.796Z,0
2023-05-06T01:38:37.751Z,0
2023-05-06T01:39:50.000Z,0
2023-05-06T01:41:10.393Z,0
2023-05-06T01:42:22.000Z,0
2023-05-06T01:43:38.000Z,0
2023-05-06T01:44:54.000Z,0
2023-05-06T01:46:14.927Z,0
2023-05-06T01:47:27.000Z,0
2023-05-06T01:48:43.000Z,0
2023-05-06T01:49:59.000Z,0
2023-05-06T01:51:15.000Z,0
2023-05-06T01:52:32.000Z,0
2023-05-06T01:53:47.000Z,0
2023-05-06T01:55:03.000Z,0
2023-05-06T01:56:19.000Z,0
2023-05-06T01:57:39.707Z,0
2023-05-06T01:58:52.000Z,0
2023-05-06T02:00:08.000Z,0
2023-05-06T02:01:18.000Z,0
2023-05-06T02:01:28.296Z,0
2023-05-06T02:02:40.000Z,0
2023-05-06T02:03:56.000Z,0
2023-05-06T02:05:13.000Z,0
2023-05-06T02:06:33.331Z,0
2023-05-06T02:09:05.470Z,0
2023-05-06T02:10:16.000Z,0
2023-05-06T02:11:33.000Z,0
2023-05-06T02:12:49.000Z,0
2023-05-06T02:14:05.000Z,0
2023-05-06T02:15:21.000Z,0
2023-05-06T02:16:37.000Z,0
2023-05-06T02:17:54.000Z,0
2023-05-06T02:19:10.000Z,0
2023-05-06T02:20:26.000Z,0
2023-05-06T02:21:42.000Z,0
2023-05-06T02:22:58.000Z,0
2023-05-06T02:24:19.082Z,0
2023-05-06T02:25:31.000Z,0
2023-05-06T02:26:50.492Z,0
2023-05-06T02:28:02.000Z,0
2023-05-06T02:29:22.887Z,0
2023-05-06T02:30:39.083Z,0
2023-05-06T02:31:55.280Z,0
2023-05-06T02:33:07.000Z,0
2023-05-06T02:34:22.000Z,0
2023-05-06T02:35:38.000Z,0
2023-05-06T02:36:58.834Z,0
2023-05-06T02:38:11.000Z,0
2023-05-06T02:39:31.483Z,0
2023-05-06T02:40:43.000Z,0
2023-05-06T02:41:59.000Z,0
2023-05-06T02:43:20.070Z,0
2023-05-06T02:44:36.265Z,0
2023-05-06T02:45:48.000Z,0
2023-05-06T02:47:08.648Z,0
2023-05-06T02:48:20.000Z,0
2023-05-06T02:49:37.000Z,0
2023-05-06T02:50:52.000Z,0
2023-05-06T02:52:12.203Z,0
2023-05-06T02:53:28.645Z,0
2023-05-06T02:54:44.852Z,0
2023-05-06T02:55:57.000Z,0
2023-05-06T02:57:16.987Z,0
2023-05-06T02:58:29.000Z,0
2023-05-06T02:59:45.000Z,0
2023-05-06T03:01:01.000Z,0
2023-05-06T03:02:21.770Z,0
2023-05-06T03:03:34.000Z,0
2023-05-06T03:04:50.000Z,0
2023-05-06T03:06:06.000Z,0
2023-05-06T03:07:25.819Z,0
2023-05-06T03:08:37.000Z,0
2023-05-06T03:09:58.208Z,0
2023-05-06T03:11:10.000Z,0
2023-05-06T03:12:30.354Z,0
2023-05-06T03:13:42.000Z,0
2023-05-06T03:15:02.741Z,0
2023-05-06T03:16:15.000Z,0
2023-05-06T03:17:31.000Z,0
2023-05-06T03:18:47.000Z,0
2023-05-06T03:20:03.000Z,0
2023-05-06T03:21:19.000Z,0
2023-05-06T03:22:36.000Z,0
2023-05-06T03:23:51.000Z,0
2023-05-06T03:25:07.000Z,0
2023-05-06T03:26:23.000Z,0
2023-05-06T03:27:39.000Z,4
2023-05-06T03:28:56.000Z,4
2023-05-06T03:30:12.000Z,4
2023-05-06T03:31:32.525Z,4
2023-05-06T03:32:48.720Z,8
2023-05-06T03:34:00.000Z,8
2023-05-06T03:35:17.000Z,8
2023-05-06T03:36:33.000Z,8
2023-05-06T03:37:49.000Z,12
2023-05-06T03:39:05.000Z,12
2023-05-06T03:40:24.651Z,16
2023-05-06T03:41:37.000Z,20
2023-05-06T03:42:57.295Z,24
2023-05-06T03:44:13.483Z,28
2023-05-06T03:45:25.000Z,32
2023-05-06T03:46:35.000Z,76
2023-05-06T03:46:41.000Z,40
2023-05-06T03:48:02.069Z,44
2023-05-06T03:49:14.000Z,48
2023-05-06T03:50:23.000Z,116
2023-05-06T03:50:30.000Z,56
2023-05-06T03:51:46.000Z,68
2023-05-06T03:54:18.000Z,88
2023-05-06T03:55:27.000Z,188
2023-05-06T03:55:35.000Z,100
2023-05-06T03:56:44.000Z,208
2023-05-06T03:58:06.000Z,132
2023-05-06T03:59:22.000Z,152
2023-05-06T04:00:38.000Z,168
2023-05-06T04:04:27.000Z,228
2023-05-06T04:05:47.542Z,244
2023-05-06T04:07:03.992Z,268
2023-05-06T04:08:19.929Z,292
2023-05-06T04:09:32.000Z,316
2023-05-06T04:10:52.570Z,340
2023-05-06T04:12:04.000Z,364
2023-05-06T04:13:19.000Z,388
2023-05-06T04:14:36.000Z,416
2023-05-06T04:15:52.000Z,444
2023-05-06T04:17:08.000Z,472
2023-05-06T04:18:24.000Z,496
2023-05-06T04:19:40.000Z,528
2023-05-06T04:20:50.000Z,700
2023-05-06T04:21:01.129Z,556
2023-05-06T04:22:13.000Z,584
2023-05-06T04:23:33.522Z,612
2023-05-06T04:24:45.000Z,640
2023-05-06T04:26:05.659Z,672
2023-05-06T04:28:38.298Z,728
2023-05-06T04:29:49.000Z,756
2023-05-06T04:31:05.000Z,788
2023-05-06T04:32:21.000Z,820
2023-05-06T04:33:41.837Z,848
2023-05-06T04:34:58.284Z,880
2023-05-06T04:36:10.000Z,908
2023-05-06T04:37:30.669Z,940
2023-05-06T04:38:42.000Z,968
2023-05-06T04:39:59.000Z,1000
2023-05-06T04:41:15.000Z,1032
2023-05-06T04:42:31.000Z,1060
2023-05-06T04:43:47.000Z,1092
2023-05-06T04:45:03.000Z,1128
2023-05-06T04:46:18.000Z,1160
2023-05-06T04:47:39.234Z,1192
2023-05-06T04:48:55.433Z,1224
2023-05-06T04:50:07.000Z,1256
2023-05-06T04:51:23.000Z,1288
2023-05-06T04:52:39.000Z,1316
2023-05-06T04:53:56.000Z,1348
2023-05-06T04:55:12.000Z,1384
2023-05-06T04:56:32.593Z,1424
2023-05-06T04:57:44.000Z,1460
2023-05-06T04:59:00.000Z,1504
2023-05-06T05:00:17.000Z,1572
2023-05-06T05:01:33.000Z,1644
2023-05-06T05:02:48.000Z,1744
2023-05-06T05:04:08.766Z,1940
2023-05-06T05:05:20.000Z,2360
2023-05-06T05:06:37.000Z,3344
2023-05-06T05:07:53.000Z,4004
2023-05-06T05:09:09.498Z,4212
2023-05-06T05:10:25.000Z,3688
2023-05-06T05:11:45.943Z,3600
2023-05-06T05:12:58.000Z,4100
2023-05-06T05:14:14.000Z,4676
2023-05-06T05:15:23.000Z,4260
2023-05-06T05:15:34.508Z,5228
2023-05-06T05:16:50.708Z,4308
2023-05-06T05:18:02.000Z,3464
2023-05-06T05:19:22.118Z,3380
2023-05-06T05:20:34.000Z,3456
2023-05-06T05:23:06.000Z,4264
2023-05-06T05:24:26.883Z,4812
2023-05-06T05:25:43.080Z,4852
2023-05-06T05:26:59.024Z,4288
2023-05-06T05:28:11.000Z,4264
2023-05-06T05:29:27.000Z,3796
2023-05-06T05:30:43.000Z,3536
2023-05-06T05:31:59.000Z,3380
2023-05-06T05:33:20.254Z,3244
2023-05-06T05:34:24.000Z,5092
2023-05-06T05:34:36.186Z,4104
2023-05-06T05:35:47.000Z,3444
2023-05-06T05:36:57.000Z,4808
2023-05-06T05:37:03.000Z,3448
2023-05-06T05:38:19.000Z,3548
2023-05-06T05:39:40.222Z,4024
2023-05-06T05:42:02.000Z,6388
2023-05-06T05:42:12.609Z,5412
2023-05-06T05:44:40.000Z,5512
2023-05-06T05:45:57.000Z,5308
2023-05-06T05:47:13.000Z,5872
2023-05-06T05:49:49.526Z,6116
2023-05-06T05:51:01.000Z,5076
2023-05-06T05:52:17.000Z,5184
2023-05-06T05:53:33.000Z,6400
2023-05-06T05:54:49.000Z,5492
2023-05-06T05:55:59.000Z,7876
2023-05-06T05:56:05.000Z,6684
2023-05-06T05:57:25.959Z,9384
2023-05-06T05:58:38.000Z,9512
2023-05-06T05:59:54.000Z,8188
2023-05-06T06:01:10.000Z,8348
2023-05-06T06:03:42.000Z,6724
2023-05-06T06:05:03.120Z,8660
2023-05-06T06:06:15.000Z,11356
2023-05-06T06:07:24.000Z,15072
2023-05-06T06:07:31.000Z,11744
2023-05-06T06:08:46.000Z,8444
2023-05-06T06:10:06.899Z,8084
2023-05-06T06:11:19.000Z,12112
2023-05-06T06:12:35.000Z,13260
2023-05-06T06:15:07.000Z,13228
2023-05-06T06:16:27.625Z,10832
2023-05-06T06:17:44.064Z,17568
2023-05-06T06:19:00.263Z,22624
2023-05-06T06:20:16.206Z,25824
2023-05-06T06:21:28.000Z,29536
2023-05-06T06:22:44.000Z,26976
2023-05-06T06:24:00.000Z,20640
2023-05-06T06:25:16.000Z,20896
2023-05-06T06:26:32.000Z,20480
2023-05-06T06:27:52.625Z,20640
2023-05-06T06:29:04.000Z,17792
2023-05-06T06:30:20.000Z,19808
2023-05-06T06:31:41.213Z,19040
2023-05-06T06:32:57.413Z,19840
2023-05-06T06:34:09.000Z,17344
2023-05-06T06:35:25.000Z,7716
2023-05-06T06:36:41.000Z,4364
2023-05-06T06:37:58.000Z,4060
2023-05-06T06:39:14.000Z,3816
2023-05-06T06:40:30.000Z,3596
2023-05-06T06:41:45.000Z,3440
2023-05-06T06:43:05.725Z,3420
2023-05-06T06:44:21.919Z,3416
2023-05-06T06:45:34.000Z,3420
2023-05-06T06:46:50.000Z,3388
2023-05-06T06:48:10.748Z,3336
2023-05-06T06:49:21.000Z,3304
2023-05-06T06:50:42.158Z,3244
2023-05-06T06:51:54.000Z,3236
2023-05-06T06:53:14.544Z,3260
2023-05-06T06:54:26.000Z,3224
2023-05-06T06:55:42.000Z,3244
2023-05-06T06:57:03.132Z,3208
2023-05-06T06:58:19.321Z,3120
2023-05-06T06:59:35.266Z,3136
2023-05-06T07:00:51.706Z,3096
2023-05-06T07:02:07.653Z,3052
2023-05-06T07:03:23.847Z,2984
2023-05-06T07:04:36.000Z,2944
2023-05-06T07:05:51.000Z,2896
2023-05-06T07:07:07.000Z,2880
2023-05-06T07:08:23.000Z,2860
2023-05-06T07:09:43.831Z,2852
2023-05-06T07:10:56.000Z,2888
2023-05-06T07:12:12.000Z,2980
2023-05-06T07:13:32.661Z,3040
2023-05-06T07:14:44.000Z,3000
2023-05-06T07:16:00.000Z,3008
2023-05-06T07:17:17.000Z,2992
2023-05-06T07:18:33.000Z,2976
2023-05-06T07:20:37.761Z,2984
2023-05-06T07:21:05.000Z,2984
2023-05-06T07:22:20.000Z,2964
2023-05-06T07:23:41.223Z,2940
2023-05-06T07:24:53.000Z,2940
2023-05-06T07:26:13.626Z,2944
2023-05-06T07:27:29.808Z,2952
2023-05-06T07:28:45.752Z,2960
2023-05-06T07:29:58.000Z,2960
2023-05-06T07:31:14.000Z,2952
2023-05-06T07:32:59.645Z,2948
2023-05-06T07:33:46.000Z,2968
2023-05-06T07:35:06.721Z,3016
2023-05-06T07:36:22.914Z,3124
2023-05-06T07:37:35.000Z,3292
2023-05-06T07:38:43.000Z,8456
2023-05-06T07:38:50.000Z,3608
2023-05-06T07:40:06.000Z,4340
2023-05-06T07:41:22.000Z,5344
2023-05-06T07:42:43.142Z,6852
2023-05-06T07:43:55.000Z,8032
2023-05-06T07:46:27.000Z,8004
2023-05-06T07:47:47.924Z,7684
2023-05-06T07:49:04.120Z,7936
2023-05-06T07:50:16.000Z,7772
2023-05-06T07:51:36.510Z,7936
2023-05-06T07:52:52.695Z,8568
2023-05-06T07:54:04.000Z,8244
2023-05-06T07:55:20.000Z,7424
2023-05-06T07:56:36.000Z,6692
2023-05-06T07:57:52.000Z,5568
2023-05-06T07:59:12.432Z,4680
2023-05-06T08:00:28.625Z,4532
2023-05-06T08:01:45.078Z,4912
2023-05-06T08:02:57.000Z,5564
2023-05-06T08:04:13.000Z,6088
2023-05-06T08:05:29.000Z,6568
2023-05-06T08:06:49.594Z,6280
2023-05-06T08:08:01.000Z,5716
2023-05-06T08:09:18.000Z,5588
2023-05-06T08:10:38.175Z,4960
2023-05-06T08:11:49.000Z,4220
2023-05-06T08:13:05.000Z,3896
2023-05-06T08:14:25.772Z,3756
2023-05-06T08:15:38.000Z,3672
2023-05-06T08:16:58.159Z,3604
2023-05-06T08:18:14.600Z,3440
2023-05-06T08:19:30.546Z,3284
2023-05-06T08:20:46.740Z,3184
2023-05-06T08:22:03.188Z,3136
2023-05-06T08:23:15.000Z,3108
2023-05-06T08:24:35.321Z,3108
2023-05-06T08:25:47.000Z,3096
2023-05-06T08:27:03.000Z,3100
2023-05-06T08:28:19.000Z,3104
2023-05-06T08:29:39.367Z,3072
2023-05-06T08:30:55.553Z,3024
2023-05-06T08:32:07.000Z,3004
2023-05-06T08:33:23.000Z,2988
2023-05-06T08:34:40.000Z,2948
2023-05-06T08:35:56.000Z,2924
2023-05-06T08:37:12.000Z,2908
2023-05-06T08:38:28.000Z,2916
2023-05-06T08:39:44.000Z,2972
2023-05-06T08:41:00.000Z,3008
2023-05-06T08:42:21.302Z,3056
2023-05-06T08:43:33.000Z,3216
2023-05-06T08:44:48.000Z,3280
2023-05-06T08:46:04.000Z,3356
2023-05-06T08:47:25.080Z,3624
2023-05-06T08:48:37.000Z,4132
2023-05-06T08:49:53.000Z,4336
2023-05-06T08:51:09.000Z,4204
2023-05-06T08:52:29.873Z,4052
2023-05-06T08:53:46.054Z,4692
2023-05-06T08:54:58.000Z,3756
2023-05-06T08:56:14.000Z,4496
2023-05-06T08:57:30.000Z,5476
2023-05-06T08:58:50.581Z,5484
2023-05-06T09:00:02.000Z,4984
2023-05-06T09:01:22.233Z,4984
2023-05-06T09:02:34.000Z,5620
2023-05-06T09:03:54.620Z,5360
2023-05-06T09:05:06.000Z,4664
2023-05-06T09:06:26.759Z,4716
2023-05-06T09:07:39.000Z,4060
2023-05-06T09:08:55.000Z,3480
2023-05-06T09:10:15.341Z,4140
2023-05-06T09:11:27.000Z,4360
2023-05-06T09:12:43.000Z,4024
2023-05-06T09:14:00.000Z,3892
2023-05-06T09:15:20.373Z,4432
2023-05-06T09:16:32.000Z,5392
2023-05-06T09:17:51.778Z,5384
2023-05-06T09:19:03.000Z,4632
2023-05-06T09:20:24.163Z,4612
2023-05-06T09:21:36.000Z,4660
2023-05-06T09:22:56.543Z,4892
2023-05-06T09:24:08.000Z,5096
2023-05-06T09:25:28.680Z,4636
2023-05-06T09:26:45.122Z,4708
2023-05-06T09:27:57.000Z,4916
2023-05-06T09:29:13.000Z,4720
2023-05-06T09:30:33.733Z,4716
2023-05-06T09:31:45.000Z,4684
2023-05-06T09:33:06.100Z,5128
2023-05-06T09:34:21.302Z,5920
2023-05-06T09:35:33.000Z,6672
2023-05-06T09:36:49.000Z,6996
2023-05-06T09:38:09.883Z,6764
2023-05-06T09:39:26.082Z,5996
2023-05-06T09:40:38.000Z,5952
2023-05-06T09:41:54.000Z,7080
2023-05-06T09:43:10.000Z,7288
2023-05-06T09:44:26.000Z,5732
2023-05-06T09:45:42.000Z,4956
2023-05-06T09:46:59.000Z,5028
2023-05-06T09:48:15.000Z,5044
2023-05-06T09:49:31.000Z,4600
2023-05-06T09:50:50.841Z,5064
2023-05-06T09:52:02.000Z,5520
2023-05-06T09:53:23.220Z,7324
2023-05-06T09:54:39.415Z,8136
2023-05-06T09:55:55.361Z,7804
2023-05-06T09:57:07.000Z,7404
2023-05-06T09:58:23.000Z,8916
2023-05-06T09:59:40.000Z,8116
2023-05-06T10:00:56.000Z,8284
2023-05-06T10:02:16.329Z,8152
2023-05-06T10:03:32.771Z,8308
2023-05-06T10:04:44.000Z,7904
2023-05-06T10:06:01.000Z,8308
2023-05-06T10:07:16.000Z,9216
2023-05-06T10:08:36.563Z,9268
2023-05-06T10:09:52.508Z,8840
2023-05-06T10:11:08.701Z,9484
2023-05-06T10:12:20.000Z,9156
2023-05-06T10:13:37.000Z,8488
2023-05-06T10:14:57.530Z,7592
2023-05-06T10:16:13.734Z,8232
2023-05-06T10:17:29.926Z,9104
2023-05-06T10:18:41.000Z,8836
2023-05-06T10:20:02.059Z,8952
2023-05-06T10:21:18.503Z,8892
2023-05-06T10:22:34.446Z,8372
2023-05-06T10:23:49.899Z,8224
2023-05-06T10:25:01.000Z,8220
2023-05-06T10:26:22.297Z,8344
2023-05-06T10:27:34.000Z,8268
2023-05-06T10:28:50.000Z,8376
2023-05-06T10:30:06.000Z,8352
2023-05-06T10:31:27.074Z,7724
2023-05-06T10:32:43.013Z,7348
2023-05-06T10:33:59.207Z,7160
2023-05-06T10:35:11.000Z,7068
2023-05-06T10:36:27.000Z,7284
2023-05-06T10:37:43.000Z,8200
2023-05-06T10:39:04.239Z,8096
2023-05-06T10:40:15.000Z,7404
2023-05-06T10:41:31.000Z,7496
2023-05-06T10:42:47.000Z,7488
2023-05-06T10:44:07.774Z,7512
2023-05-06T10:45:24.213Z,7196
2023-05-06T10:46:40.417Z,7256
2023-05-06T10:47:52.000Z,7644
2023-05-06T10:49:08.000Z,8488
2023-05-06T10:50:24.000Z,10152
2023-05-06T10:51:44.938Z,12112
2023-05-06T10:52:57.000Z,12732
2023-05-06T10:54:17.325Z,12876
2023-05-06T10:55:33.519Z,12820
2023-05-06T10:56:44.000Z,13044
2023-05-06T10:58:00.000Z,13700
2023-05-06T10:59:17.000Z,14784
2023-05-06T11:00:33.000Z,15248
2023-05-06T11:01:49.000Z,16160
2023-05-06T11:03:05.000Z,15548
2023-05-06T11:04:20.000Z,14832
2023-05-06T11:05:37.000Z,14540
2023-05-06T11:06:57.545Z,14908
2023-05-06T11:08:13.737Z,15032
2023-05-06T11:09:29.937Z,14936
2023-05-06T11:10:45.880Z,14836
2023-05-06T11:12:02.324Z,14708
2023-05-06T11:13:14.000Z,14568
2023-05-06T11:14:30.000Z,14288
2023-05-06T11:15:50.655Z,13704
2023-05-06T11:17:02.000Z,13928
2023-05-06T11:18:19.000Z,13304
2023-05-06T11:19:35.000Z,13128
2023-05-06T11:20:54.446Z,13500
2023-05-06T11:22:10.640Z,14524
2023-05-06T11:23:22.000Z,15016
2023-05-06T11:24:39.000Z,14816
2023-05-06T11:25:59.471Z,14160
2023-05-06T11:27:11.000Z,13000
2023-05-06T11:28:27.000Z,11452
2023-05-06T11:29:47.802Z,9844
2023-05-06T11:31:00.000Z,8948
2023-05-06T11:32:20.445Z,8536
2023-05-06T11:33:36.383Z,8400
2023-05-06T11:34:52.577Z,8552
2023-05-06T11:36:04.000Z,8800
2023-05-06T11:37:20.000Z,9120
2023-05-06T11:38:36.000Z,9268
2023-05-06T11:39:56.368Z,9260
2023-05-06T11:41:08.000Z,9960
2023-05-06T11:42:24.000Z,10804
2023-05-06T11:43:41.000Z,10404
2023-05-06T11:45:01.393Z,9664
2023-05-06T11:46:13.000Z,9112
2023-05-06T11:47:29.000Z,8392
2023-05-06T11:48:45.000Z,8160
2023-05-06T11:50:05.919Z,7780
2023-05-06T11:51:18.000Z,7352
2023-05-06T11:52:34.000Z,7424
2023-05-06T11:53:49.000Z,7692
2023-05-06T11:55:09.710Z,7680
2023-05-06T11:56:21.000Z,6772
2023-05-06T11:57:31.000Z,3464
2023-05-06T11:57:38.000Z,5592
2023-05-06T11:58:54.000Z,4880
2023-05-06T12:00:14.731Z,3984
2023-05-06T12:01:26.000Z,3416
2023-05-06T12:02:46.872Z,3316
2023-05-06T12:05:15.000Z,3960
2023-05-06T12:06:31.000Z,4908
2023-05-06T12:07:51.646Z,6640
2023-05-06T12:09:03.000Z,7780
2023-05-06T12:10:23.050Z,8852
2023-05-06T12:11:35.000Z,9104
2023-05-06T12:12:51.000Z,9548
2023-05-06T12:14:11.876Z,10356
2023-05-06T12:15:23.000Z,11132
2023-05-06T12:16:40.000Z,11812
2023-05-06T12:17:56.000Z,11836
2023-05-06T12:19:12.000Z,11792
2023-05-06T12:20:28.000Z,12052
2023-05-06T12:21:44.000Z,11992
2023-05-06T12:23:01.000Z,11792
2023-05-06T12:24:17.000Z,11584
2023-05-06T12:25:37.374Z,11652
2023-05-06T12:26:48.000Z,12008
2023-05-06T12:28:04.000Z,12100
2023-05-06T12:29:21.000Z,11924
2023-05-06T12:30:37.000Z,11476
2023-05-06T12:31:53.000Z,11124
2023-05-06T12:33:13.799Z,11120
2023-05-06T12:34:25.000Z,11236
2023-05-06T12:35:41.000Z,11444
2023-05-06T12:36:58.000Z,11580
2023-05-06T12:38:18.327Z,11496
2023-05-06T12:39:34.521Z,11420
2023-05-06T12:40:46.000Z,11416
2023-05-06T12:42:02.000Z,11556
2023-05-06T12:43:22.361Z,11740
2023-05-06T12:44:38.312Z,12148
2023-05-06T12:45:54.751Z,12516
2023-05-06T12:47:10.700Z,12688
2023-05-06T12:48:26.895Z,12668
2023-05-06T12:49:43.089Z,12824
2023-05-06T12:50:55.000Z,13068
2023-05-06T12:52:15.731Z,13408
2023-05-06T12:53:31.922Z,13696
2023-05-06T12:54:43.000Z,14056
2023-05-06T12:56:04.064Z,14424
2023-05-06T12:57:20.259Z,14424
2023-05-06T12:58:32.000Z,13896
2023-05-06T12:59:51.665Z,13184
2023-05-06T13:01:08.108Z,12456
2023-05-06T13:02:24.056Z,11996
2023-05-06T13:03:40.510Z,11728
2023-05-06T13:04:52.000Z,11416
2023-05-06T13:06:08.000Z,10800
2023-05-06T13:07:29.083Z,10000
2023-05-06T13:08:41.000Z,9204
2023-05-06T13:09:57.000Z,8544
2023-05-06T13:11:17.420Z,8064
2023-05-06T13:12:29.000Z,7532
2023-05-06T13:13:38.000Z,6648
2023-05-06T13:13:50.063Z,6916
2023-05-06T13:15:06.007Z,6472
2023-05-06T13:16:17.000Z,6304
2023-05-06T13:17:37.414Z,6368
2023-05-06T13:18:53.862Z,6508
2023-05-06T13:21:26.001Z,7200
2023-05-06T13:22:38.000Z,8336
2023-05-06T13:23:58.393Z,9752
2023-05-06T13:25:10.000Z,11012
2023-05-06T13:26:31.035Z,11812
2023-05-06T13:27:47.229Z,12168
2023-05-06T13:28:59.000Z,12352
2023-05-06T13:30:19.371Z,12516
2023-05-06T13:31:31.000Z,12604
2023-05-06T13:32:47.000Z,12456
2023-05-06T13:34:02.000Z,12128
2023-05-06T13:35:19.000Z,11736
2023-05-06T13:36:35.000Z,11300
2023-05-06T13:37:51.000Z,10688
2023-05-06T13:39:07.000Z,9924
2023-05-06T13:40:28.198Z,9164
2023-05-06T13:41:44.394Z,8416
2023-05-06T13:42:56.000Z,7648
2023-05-06T13:44:12.000Z,6952
2023-05-06T13:45:28.000Z,6352
2023-05-06T13:46:44.000Z,5580
2023-05-06T13:48:01.000Z,4204
2023-05-06T13:49:17.000Z,2804
2023-05-06T13:50:32.000Z,1204
2023-05-06T13:51:52.730Z,2084
2023-05-06T13:53:08.925Z,2512
2023-05-06T13:54:25.121Z,2664
2023-05-06T13:55:41.316Z,2832
2023-05-06T13:56:57.512Z,3072
2023-05-06T13:58:09.000Z,3320
2023-05-06T13:59:29.903Z,3692
2023-05-06T14:00:42.000Z,3892
2023-05-06T14:01:58.000Z,3840
2023-05-06T14:03:18.490Z,3656
2023-05-06T14:04:30.000Z,3400
2023-05-06T14:05:46.000Z,3232
2023-05-06T14:07:02.000Z,3112
2023-05-06T14:08:22.290Z,3152
2023-05-06T14:09:38.728Z,3116
2023-05-06T14:10:54.681Z,3000
2023-05-06T14:12:06.000Z,3004
2023-05-06T14:13:23.000Z,3212
2023-05-06T14:14:39.000Z,3608
2023-05-06T14:15:59.464Z,4008
2023-05-06T14:17:15.660Z,4388
2023-05-06T14:18:31.855Z,4680
2023-05-06T14:19:48.051Z,4832
2023-05-06T14:21:00.000Z,4912
2023-05-06T14:22:20.442Z,5000
2023-05-06T14:23:31.000Z,5148
2023-05-06T14:24:47.000Z,5400
2023-05-06T14:26:08.045Z,5676
2023-05-06T14:27:24.241Z,5712
2023-05-06T14:28:36.000Z,5652
2023-05-06T14:29:56.632Z,5544
2023-05-06T14:31:08.000Z,5492
2023-05-06T14:32:25.000Z,5504
2023-05-06T14:33:41.000Z,5536
2023-05-06T14:35:01.679Z,5524
2023-05-06T14:36:13.000Z,5568
2023-05-06T14:37:33.806Z,5604
2023-05-06T14:38:45.000Z,5700
2023-05-06T14:40:05.213Z,5848
2023-05-06T14:41:17.000Z,6028
2023-05-06T14:42:33.000Z,6200
2023-05-06T14:43:53.800Z,6364
2023-05-06T14:45:09.996Z,6568
2023-05-06T14:46:22.000Z,6924
2023-05-06T14:47:38.000Z,7280
2023-05-06T14:48:54.000Z,7492
2023-05-06T14:50:10.000Z,7676
2023-05-06T14:51:19.000Z,7724
2023-05-06T14:51:26.000Z,7804
2023-05-06T14:52:47.169Z,7888
2023-05-06T14:54:03.617Z,7932
2023-05-06T14:55:15.000Z,8000
2023-05-06T14:56:34.772Z,7948
2023-05-06T14:59:03.000Z,7436
2023-05-06T15:00:19.000Z,7180
2023-05-06T15:01:39.554Z,6976
2023-05-06T15:02:55.750Z,6824
2023-05-06T15:04:11.946Z,6652
2023-05-06T15:05:28.392Z,6472
2023-05-06T15:06:44.583Z,6332
2023-05-06T15:07:56.000Z,6204
2023-05-06T15:09:12.000Z,6088
2023-05-06T15:10:33.186Z,6088
2023-05-06T15:11:49.367Z,6372
2023-05-06T15:13:04.586Z,6836
2023-05-06T15:14:16.000Z,7296
2023-05-06T15:15:36.971Z,7672
2023-05-06T15:16:52.918Z,7924
2023-05-06T15:18:09.365Z,8072
2023-05-06T15:19:13.000Z,6560
2023-05-06T15:19:20.000Z,8056
2023-05-06T15:20:40.769Z,7908
2023-05-06T15:21:56.722Z,7660
2023-05-06T15:23:13.169Z,7312
2023-05-06T15:24:29.113Z,6892
2023-05-06T15:26:57.000Z,6316
2023-05-06T15:28:17.700Z,6232
2023-05-06T15:29:33.895Z,6260
2023-05-06T15:30:50.091Z,6316
2023-05-06T15:32:02.000Z,6396
2023-05-06T15:33:22.735Z,6480
2023-05-06T15:34:34.000Z,6576
2023-05-06T15:35:43.000Z,6712
2023-05-06T15:35:53.890Z,6788
2023-05-06T15:37:06.000Z,7008
2023-05-06T15:38:22.000Z,7020
2023-05-06T15:39:42.477Z,6860
2023-05-06T15:40:54.000Z,6684
2023-05-06T15:43:31.064Z,6860
2023-05-06T15:44:43.000Z,7016
2023-05-06T15:46:03.704Z,7096
2023-05-06T15:47:15.000Z,7012
2023-05-06T15:48:31.000Z,6792
2023-05-06T15:49:48.000Z,6496
2023-05-06T15:51:04.000Z,6168
2023-05-06T15:52:19.000Z,5836
2023-05-06T15:53:35.000Z,5608
2023-05-06T15:54:51.000Z,5584
2023-05-06T15:56:12.037Z,5704
2023-05-06T15:57:24.000Z,5784
2023-05-06T15:58:40.000Z,5840
2023-05-06T15:59:49.000Z,6020
2023-05-06T15:59:56.000Z,5860
2023-05-06T16:01:17.073Z,5872
2023-05-06T16:02:28.000Z,5900
2023-05-06T16:03:45.000Z,5952
2023-05-06T16:05:05.406Z,5984
2023-05-06T16:07:33.000Z,6080
2023-05-06T16:08:48.000Z,6080
2023-05-06T16:10:05.000Z,5944
2023-05-06T16:11:25.638Z,5752
2023-05-06T16:12:41.596Z,5692
2023-05-06T16:13:53.000Z,5916
2023-05-06T16:15:13.988Z,6268
2023-05-06T16:16:30.431Z,6696
2023-05-06T16:17:42.000Z,7268
2023-05-06T16:18:58.000Z,7436
2023-05-06T16:20:18.770Z,7184
2023-05-06T16:21:35.212Z,7024
2023-05-06T16:22:47.000Z,7104
2023-05-06T16:24:03.000Z,7276
2023-05-06T16:25:18.000Z,7424
2023-05-06T16:26:39.016Z,7452
2023-05-06T16:27:50.000Z,7420
2023-05-06T16:29:11.157Z,7260
2023-05-06T16:30:23.000Z,6944
2023-05-06T16:31:43.548Z,6564
2023-05-06T16:32:55.000Z,6156
2023-05-06T16:34:11.000Z,5868
2023-05-06T16:35:28.000Z,5748
2023-05-06T16:36:44.000Z,5688
2023-05-06T16:38:04.779Z,5720
2023-05-06T16:39:16.000Z,5636
2023-05-06T16:40:25.000Z,3912
2023-05-06T16:40:32.000Z,5292
2023-05-06T16:41:52.130Z,5008
2023-05-06T16:43:04.000Z,4728
2023-05-06T16:44:20.000Z,4512
2023-05-06T16:45:40.717Z,4256
2023-05-06T16:48:09.000Z,3464
2023-05-06T16:49:29.304Z,3056
2023-05-06T16:50:45.499Z,2688
2023-05-06T16:51:57.000Z,2376
2023-05-06T16:53:13.000Z,2244
2023-05-06T16:54:34.087Z,2236
2023-05-06T16:55:50.282Z,2240
2023-05-06T16:57:06.478Z,2204
2023-05-06T16:58:17.000Z,2224
2023-05-06T16:59:33.000Z,2292
2023-05-06T17:00:50.000Z,2260
2023-05-06T17:02:06.000Z,2208
2023-05-06T17:03:15.000Z,1648
2023-05-06T17:03:22.000Z,2064
2023-05-06T17:04:38.000Z,1860
2023-05-06T17:05:48.000Z,1784
2023-05-06T17:05:54.000Z,1720
2023-05-06T17:07:15.060Z,1664
2023-05-06T17:08:27.000Z,1644
2023-05-06T17:10:59.000Z,1720
2023-05-06T17:13:31.000Z,1772
2023-05-06T17:14:47.000Z,1672